createdAt,value
2023-02-17T00:00:26.055Z,98201.63
2023-02-17T00:02:27.438Z,98186.34
2023-02-17T00:04:29.143Z,98179.53
2023-02-17T00:06:30.482Z,98183.91
2023-02-17T00:08:31.789Z,98178.00
2023-02-17T00:10:33.135Z,98177.19
2023-02-17T00:12:34.471Z,98174.63
2023-02-17T00:14:35.779Z,98174.63
2023-02-17T00:16:37.100Z,98184.88
2023-02-17T00:18:38.398Z,98183.22
2023-02-17T00:20:39.705Z,98187.50
2023-02-17T00:22:41.068Z,98178.13
2023-02-17T00:24:42.567Z,98175.63
2023-02-17T00:26:43.891Z,98182.50
2023-02-17T00:28:45.235Z,98179.91
2023-02-17T00:30:46.541Z,98169.09
2023-02-17T00:32:47.888Z,98176.13
2023-02-17T00:34:49.226Z,98168.34
2023-02-17T00:36:50.521Z,98175.00
2023-02-17T00:38:51.851Z,98174.03
2023-02-17T00:40:53.144Z,98175.66
2023-02-17T00:42:54.954Z,98167.00
2023-02-17T00:44:56.350Z,98165.22
2023-02-17T00:46:57.646Z,98169.34
2023-02-17T00:48:58.951Z,98163.28
2023-02-17T00:51:00.250Z,98165.75
2023-02-17T00:53:02.211Z,98164.78
2023-02-17T00:55:03.608Z,98165.44
2023-02-17T00:57:04.984Z,98165.25
2023-02-17T00:59:06.585Z,98163.56
2023-02-17T01:01:07.894Z,98162.72
2023-02-17T01:03:09.201Z,98157.59
2023-02-17T01:05:10.543Z,98162.72
2023-02-17T01:07:11.870Z,98157.72
2023-02-17T01:09:13.205Z,98157.72
2023-02-17T01:11:14.504Z,98152.59
2023-02-17T01:13:15.821Z,98142.38
2023-02-17T01:15:17.128Z,98141.59
2023-02-17T01:17:18.421Z,98145.91
2023-02-17T01:19:19.724Z,98148.53
2023-02-17T01:21:21.070Z,98145.25
2023-02-17T01:23:22.363Z,98147.88
2023-02-17T01:25:23.660Z,98142.75
2023-02-17T01:27:25.041Z,98133.50
2023-02-17T01:29:26.350Z,98129.31
2023-02-17T01:31:27.789Z,98136.19
2023-02-17T01:33:29.197Z,98128.59
2023-02-17T01:35:30.496Z,98114.16
2023-02-17T01:37:31.801Z,98120.16
2023-02-17T01:39:33.095Z,98114.28
2023-02-17T01:41:34.505Z,98119.38
2023-02-17T01:43:35.802Z,98117.69
2023-02-17T01:45:37.130Z,98116.03
2023-02-17T01:47:38.442Z,98112.66
2023-02-17T01:49:39.746Z,98120.34
2023-02-17T01:51:41.038Z,98122.06
2023-02-17T01:53:42.368Z,98114.41
2023-02-17T01:55:43.667Z,98116.03
2023-02-17T01:57:44.976Z,98110.88
2023-02-17T01:59:46.315Z,98104.06
2023-02-17T02:01:47.897Z,98098.94
2023-02-17T02:03:49.288Z,98103.22
2023-02-17T02:05:50.596Z,98098.03
2023-02-17T02:07:51.898Z,98106.56
2023-02-17T02:09:53.254Z,98082.69
2023-02-17T02:11:54.559Z,98080.88
2023-02-17T02:13:55.892Z,98070.53
2023-02-17T02:15:57.200Z,98070.47
2023-02-17T02:17:58.500Z,98056.69
2023-02-17T02:19:59.793Z,98056.63
2023-02-17T02:22:01.090Z,98045.47
2023-02-17T02:24:02.386Z,98051.38
2023-02-17T02:26:03.924Z,98052.22
2023-02-17T02:28:05.373Z,98046.19
2023-02-17T02:30:06.792Z,98046.19
2023-02-17T02:32:08.110Z,98028.31
2023-02-17T02:34:09.435Z,98030.84
2023-02-17T02:36:10.777Z,98030.00
2023-02-17T02:38:12.107Z,98020.75
2023-02-17T02:40:13.399Z,98019.91
2023-02-17T02:42:14.715Z,98019.91
2023-02-17T02:44:16.021Z,98020.84
2023-02-17T02:46:17.371Z,98022.59
2023-02-17T02:48:18.665Z,98025.25
2023-02-17T02:50:20.035Z,98027.84
2023-02-17T02:52:21.381Z,98021.16
2023-02-17T02:54:22.713Z,98023.69
2023-02-17T02:56:24.074Z,98020.31
2023-02-17T02:58:25.400Z,98008.47
2023-02-17T03:00:26.703Z,98011.00
2023-02-17T03:02:27.995Z,98008.44
2023-02-17T03:04:36.490Z,98014.41
2023-02-17T03:06:37.908Z,98006.81
2023-02-17T03:08:39.258Z,98007.72
2023-02-17T03:10:42.601Z,98006.88
2023-02-17T03:12:43.899Z,98010.28
2023-02-17T03:14:45.193Z,98003.50
2023-02-17T03:16:46.684Z,98006.94
2023-02-17T03:18:48.024Z,98002.66
2023-02-17T03:20:49.935Z,98007.72
2023-02-17T03:22:51.328Z,98005.19
2023-02-17T03:24:52.659Z,97996.66
2023-02-17T03:26:53.997Z,97992.38
2023-02-17T03:28:55.301Z,97987.16
2023-02-17T03:30:57.835Z,97993.91
2023-02-17T03:32:59.185Z,97982.81
2023-02-17T03:35:00.520Z,97979.22
2023-02-17T03:37:02.221Z,97984.19
2023-02-17T03:39:03.544Z,97977.16
2023-02-17T03:41:04.873Z,97971.22
2023-02-17T03:43:06.217Z,97977.28
2023-02-17T03:45:07.504Z,97978.22
2023-02-17T03:47:08.874Z,97980.84
2023-02-17T03:49:12.184Z,97987.03
2023-02-17T03:51:14.329Z,97986.34
2023-02-17T03:53:15.816Z,97986.38
2023-02-17T03:55:17.288Z,97987.28
2023-02-17T03:57:18.738Z,97974.59
2023-02-17T03:59:20.082Z,97967.84
2023-02-17T04:01:21.417Z,97966.97
2023-02-17T04:03:22.739Z,97969.59
2023-02-17T04:05:24.129Z,97969.53
2023-02-17T04:07:25.463Z,97972.09
2023-02-17T04:09:26.816Z,97968.72
2023-02-17T04:11:28.134Z,97978.91
2023-02-17T04:13:29.528Z,97973.84
2023-02-17T04:15:30.883Z,97966.97
2023-02-17T04:17:32.315Z,97966.13
2023-02-17T04:19:33.654Z,97964.44
2023-02-17T04:21:34.944Z,97955.09
2023-02-17T04:23:36.238Z,97953.41
2023-02-17T04:25:37.602Z,97952.50
2023-02-17T04:27:38.931Z,97956.75
2023-02-17T04:29:40.288Z,97960.03
2023-02-17T04:31:41.713Z,97954.84
2023-02-17T04:33:43.104Z,97956.53
2023-02-17T04:35:44.431Z,97958.94
2023-02-17T04:37:45.760Z,97960.63
2023-02-17T04:39:47.063Z,97963.09
2023-02-17T04:41:48.444Z,97957.06
2023-02-17T04:43:49.743Z,97959.59
2023-02-17T04:45:51.148Z,97951.09
2023-02-17T04:47:52.460Z,97940.88
2023-02-17T04:49:53.760Z,97946.75
2023-02-17T04:51:55.181Z,97944.19
2023-02-17T04:53:56.583Z,97948.38
2023-02-17T04:55:57.888Z,97948.31
2023-02-17T04:57:59.215Z,97934.75
2023-02-17T05:00:00.516Z,97939.03
2023-02-17T05:02:01.831Z,97942.44
2023-02-17T05:04:03.134Z,97939.16
2023-02-17T05:06:04.714Z,97939.25
2023-02-17T05:08:06.211Z,97941.00
2023-02-17T05:10:07.545Z,97947.88
2023-02-17T05:12:08.880Z,97942.00
2023-02-17T05:14:10.167Z,97937.03
2023-02-17T05:16:11.529Z,97934.72
2023-02-17T05:18:12.840Z,97930.03
2023-02-17T05:20:14.173Z,97921.50
2023-02-17T05:22:15.505Z,97928.28
2023-02-17T05:24:16.829Z,97928.25
2023-02-17T05:26:18.197Z,97928.13
2023-02-17T05:28:19.563Z,97920.53
2023-02-17T05:30:20.927Z,97924.72
2023-02-17T05:32:22.235Z,97921.44
2023-02-17T05:34:23.608Z,97916.16
2023-02-17T05:36:24.930Z,97920.34
2023-02-17T05:38:26.520Z,97912.66
2023-02-17T05:40:27.818Z,97920.34
2023-02-17T05:42:29.144Z,97922.69
2023-02-17T05:44:30.505Z,97927.22
2023-02-17T05:46:31.833Z,97918.22
2023-02-17T05:48:33.167Z,97917.56
2023-02-17T05:50:34.463Z,97915.13
2023-02-17T05:52:35.803Z,97920.81
2023-02-17T05:54:37.133Z,97924.50
2023-02-17T05:56:38.440Z,97928.84
2023-02-17T05:58:39.737Z,97931.38
2023-02-17T06:00:41.072Z,97922.75
2023-02-17T06:02:42.411Z,97921.06
2023-02-17T06:04:43.802Z,97771.72
2023-02-17T06:06:45.134Z,97926.00
2023-02-17T06:08:46.433Z,97923.41
2023-02-17T06:10:47.727Z,97922.59
2023-02-17T06:12:49.061Z,97923.44
2023-02-17T06:14:50.394Z,97922.59
2023-02-17T06:16:51.776Z,97918.34
2023-02-17T06:18:53.116Z,97923.53
2023-02-17T06:20:54.444Z,97919.31
2023-02-17T06:22:55.747Z,97918.56
2023-02-17T06:24:57.083Z,97921.97
2023-02-17T06:26:58.399Z,97916.91
2023-02-17T06:28:59.706Z,97925.53
2023-02-17T06:31:01.053Z,97919.13
2023-02-17T06:33:02.384Z,97924.63
2023-02-17T06:35:03.703Z,97919.28
2023-02-17T06:37:05.027Z,97915.00
2023-02-17T06:39:06.343Z,97910.69
2023-02-17T06:41:07.692Z,97913.28
2023-02-17T06:43:08.994Z,97906.56
2023-02-17T06:45:10.328Z,97903.16
2023-02-17T06:47:11.627Z,97904.84
2023-02-17T06:49:13.066Z,97910.94
2023-02-17T06:51:14.377Z,97905.84
2023-02-17T06:53:15.671Z,97907.56
2023-02-17T06:55:16.964Z,97906.75
2023-02-17T06:57:18.302Z,97905.06
2023-02-17T06:59:19.591Z,97894.91
2023-02-17T07:01:20.933Z,97891.50
2023-02-17T07:03:22.274Z,97892.34
2023-02-17T07:05:23.579Z,97900.00
2023-02-17T07:07:24.954Z,97888.03
2023-02-17T07:09:26.279Z,97889.72
2023-02-17T07:11:31.314Z,97902.38
2023-02-17T07:13:32.664Z,97898.88
2023-02-17T07:15:34.039Z,97902.22
2023-02-17T07:17:35.375Z,97902.19
2023-02-17T07:19:36.670Z,97897.88
2023-02-17T07:21:37.973Z,97893.47
2023-02-17T07:23:39.719Z,97904.44
2023-02-17T07:25:41.028Z,97901.00
2023-02-17T07:27:42.330Z,97901.75
2023-02-17T07:29:43.701Z,97906.00
2023-02-17T07:31:45.053Z,97906.81
2023-02-17T07:33:48.120Z,97911.88
2023-02-17T07:35:52.815Z,97896.59
2023-02-17T07:37:54.171Z,97899.09
2023-02-17T07:39:57.110Z,97898.34
2023-02-17T07:42:00.964Z,97895.75
2023-02-17T07:44:02.302Z,97894.16
2023-02-17T07:46:03.763Z,97892.50
2023-02-17T07:48:05.274Z,97896.78
2023-02-17T07:50:06.577Z,97895.97
2023-02-17T07:52:07.932Z,97890.13
2023-02-17T07:54:09.253Z,97899.53
2023-02-17T07:56:10.577Z,97894.47
2023-02-17T07:58:11.910Z,97915.75
2023-02-17T08:00:13.244Z,97886.97
2023-02-17T08:02:14.663Z,97891.25
2023-02-17T08:04:15.991Z,97888.78
2023-02-17T08:06:17.316Z,97885.47
2023-02-17T08:08:37.616Z,97890.59
2023-02-17T08:10:57.563Z,97890.66
2023-02-17T08:13:17.431Z,97894.97
2023-02-17T08:15:18.768Z,97889.91
2023-02-17T08:17:20.106Z,97891.63
2023-02-17T08:19:21.422Z,97886.56
2023-02-17T08:21:22.794Z,97889.13
2023-02-17T08:23:24.175Z,97889.97
2023-02-17T08:25:25.571Z,97897.66
2023-02-17T08:27:26.942Z,97893.38
2023-02-17T08:29:28.353Z,97888.28
2023-02-17T08:31:29.717Z,97885.69
2023-02-17T08:33:31.080Z,97880.50
2023-02-17T08:35:32.525Z,97882.13
2023-02-17T08:37:33.942Z,97883.72
2023-02-17T08:39:35.303Z,97887.88
2023-02-17T08:41:36.658Z,97885.22
2023-02-17T08:43:37.960Z,97885.91
2023-02-17T08:45:39.322Z,97889.28
2023-02-17T08:47:40.743Z,97883.19
2023-02-17T08:49:42.064Z,97882.28
2023-02-17T08:51:43.435Z,97889.88
2023-02-17T08:53:45.652Z,97891.50
2023-02-17T08:55:49.633Z,97892.22
2023-02-17T08:57:51.226Z,97894.72
2023-02-17T08:59:52.635Z,97889.59
2023-02-17T09:01:54.456Z,97887.94
2023-02-17T09:03:56.353Z,97886.34
2023-02-17T09:05:57.776Z,97887.19
2023-02-17T09:07:59.137Z,97884.75
2023-02-17T09:10:00.518Z,97879.59
2023-02-17T09:12:02.369Z,97883.97
2023-02-17T09:14:03.717Z,97881.56
2023-02-17T09:16:05.754Z,97873.13
2023-02-17T09:18:07.388Z,97883.47
2023-02-17T09:20:19.501Z,97869.91
2023-02-17T09:22:32.000Z,97864.91
2023-02-17T09:24:35.052Z,97866.69
2023-02-17T09:26:36.400Z,97854.94
2023-02-17T09:28:38.156Z,97853.28
2023-02-17T09:30:39.669Z,97853.38
2023-02-17T09:32:41.065Z,97855.94
2023-02-17T09:34:49.693Z,97856.88
2023-02-17T09:36:51.031Z,97863.75
2023-02-17T09:38:55.374Z,97860.41
2023-02-17T09:40:56.764Z,97854.50
2023-02-17T09:42:58.131Z,97851.97
2023-02-17T09:45:00.259Z,97848.63
2023-02-17T09:47:02.994Z,97855.41
2023-02-17T09:49:04.574Z,97849.41
2023-02-17T09:51:06.073Z,97841.75
2023-02-17T09:53:07.631Z,97842.59
2023-02-17T09:55:08.938Z,97842.53
2023-02-17T09:57:10.279Z,97834.00
2023-02-17T09:59:11.740Z,97842.41
2023-02-17T10:01:13.580Z,97844.81
2023-02-17T10:03:17.739Z,97840.50
2023-02-17T10:05:19.703Z,97836.97
2023-02-17T10:07:21.337Z,97836.03
2023-02-17T10:09:24.455Z,97830.88
2023-02-17T10:11:25.833Z,97831.66
2023-02-17T10:16:04.859Z,97816.22
2023-02-17T10:18:06.385Z,97817.78
2023-02-17T10:20:07.725Z,97811.81
2023-02-17T10:22:09.035Z,97798.19
2023-02-17T10:24:10.355Z,97804.16
2023-02-17T10:26:11.746Z,97800.72
2023-02-17T10:28:13.092Z,97804.91
2023-02-17T10:30:14.673Z,97798.88
2023-02-17T10:32:19.460Z,97801.47
2023-02-17T10:34:21.391Z,97803.16
2023-02-17T10:36:22.730Z,97801.53
2023-02-17T10:38:24.102Z,97797.34
2023-02-17T10:40:25.511Z,97788.75
2023-02-17T10:42:26.837Z,97787.13
2023-02-17T10:44:28.202Z,97793.94
2023-02-17T10:46:29.600Z,97788.84
2023-02-17T10:48:30.918Z,97784.66
2023-02-17T10:50:32.411Z,97783.03
2023-02-17T10:52:33.707Z,97772.13
2023-02-17T10:54:35.033Z,97764.47
2023-02-17T10:56:36.332Z,97749.22
2023-02-17T10:58:37.699Z,97753.56
2023-02-17T11:00:39.013Z,97749.41
2023-02-17T11:02:40.328Z,97744.34
2023-02-17T11:04:41.982Z,97738.44
2023-02-17T11:06:44.373Z,97719.78
2023-02-17T11:08:45.715Z,97731.69
2023-02-17T11:10:47.032Z,97721.47
2023-02-17T11:12:49.836Z,97708.78
2023-02-17T11:14:51.137Z,97707.09
2023-02-17T11:16:52.503Z,97694.44
2023-02-17T11:18:53.875Z,97692.81
2023-02-17T11:20:55.207Z,97692.81
2023-02-17T11:22:56.701Z,97685.09
2023-02-17T11:24:58.035Z,97680.00
2023-02-17T11:26:59.388Z,97675.75
2023-02-17T11:29:00.684Z,97681.72
2023-02-17T11:31:07.281Z,97673.19
2023-02-17T11:33:08.772Z,97665.47
2023-02-17T11:35:10.304Z,97662.06
2023-02-17T11:37:11.604Z,97652.63
2023-02-17T11:39:12.913Z,97656.78
2023-02-17T11:41:14.260Z,97653.41
2023-02-17T11:43:15.571Z,97656.75
2023-02-17T11:45:16.867Z,97646.44
2023-02-17T11:47:18.154Z,97644.59
2023-02-17T11:49:19.494Z,97647.09
2023-02-17T11:51:23.601Z,97636.81
2023-02-17T11:53:25.049Z,97629.13
2023-02-17T11:55:26.380Z,97629.97
2023-02-17T11:57:27.711Z,97619.75
2023-02-17T11:59:29.080Z,97609.53
2023-02-17T12:01:30.384Z,97613.78
2023-02-17T12:03:31.813Z,97617.06
2023-02-17T12:05:33.136Z,97618.81
2023-02-17T12:07:34.441Z,97615.41
2023-02-17T12:09:35.808Z,97613.72
2023-02-17T12:11:37.618Z,97609.41
2023-02-17T12:13:38.928Z,97615.34
2023-02-17T12:15:40.253Z,97610.31
2023-02-17T12:17:41.623Z,97611.16
2023-02-17T12:19:42.930Z,97607.75
2023-02-17T12:21:44.344Z,97609.56
2023-02-17T12:23:45.640Z,97607.84
2023-02-17T12:25:47.020Z,97595.06
2023-02-17T12:27:48.369Z,97590.81
2023-02-17T12:29:50.832Z,97595.94
2023-02-17T12:31:52.318Z,97580.72
2023-02-17T12:33:53.661Z,97572.19
2023-02-17T12:35:57.890Z,97570.56
2023-02-17T12:37:59.196Z,97568.94
2023-02-17T12:40:00.493Z,97564.66
2023-02-17T12:42:02.191Z,97575.75
2023-02-17T12:44:03.493Z,97566.44
2023-02-17T12:46:05.070Z,97569.00
2023-02-17T12:48:06.638Z,97560.50
2023-02-17T12:50:07.968Z,97551.22
2023-02-17T12:52:09.339Z,97538.53
2023-02-17T12:54:10.632Z,97539.38
2023-02-17T12:56:11.932Z,97539.47
2023-02-17T12:58:13.289Z,97533.53
2023-02-17T13:00:14.726Z,97532.75
2023-02-17T13:02:16.167Z,97532.75
2023-02-17T13:04:17.496Z,97529.34
2023-02-17T13:06:18.909Z,97526.84
2023-02-17T13:08:20.294Z,97520.88
2023-02-17T13:10:21.674Z,97523.44
2023-02-17T13:12:22.995Z,97509.75
2023-02-17T13:14:33.123Z,97506.34
2023-02-17T13:16:34.421Z,97513.09
2023-02-17T13:18:35.749Z,97512.22
2023-02-17T13:20:37.080Z,97519.81
2023-02-17T13:22:38.411Z,97511.28
2023-02-17T13:24:39.760Z,97503.50
2023-02-17T13:26:41.059Z,97487.28
2023-02-17T13:28:42.409Z,97487.31
2023-02-17T13:30:43.803Z,97478.72
2023-02-17T13:32:45.160Z,97474.38
2023-02-17T13:34:46.698Z,97460.75
2023-02-17T13:36:47.997Z,97456.50
2023-02-17T13:38:49.335Z,97459.88
2023-02-17T13:40:50.676Z,97464.06
2023-02-17T13:42:52.052Z,97462.28
2023-02-17T13:44:53.358Z,97469.94
2023-02-17T13:46:54.754Z,97458.91
2023-02-17T13:48:56.088Z,97456.41
2023-02-17T13:50:57.670Z,97452.94
2023-02-17T13:52:59.089Z,97452.94
2023-02-17T13:55:00.388Z,97465.72
2023-02-17T13:57:02.192Z,97447.94
2023-02-17T13:59:03.513Z,97447.91
2023-02-17T14:01:04.965Z,97446.13
2023-02-17T14:03:06.291Z,97443.66
2023-02-17T14:05:07.688Z,97431.06
2023-02-17T14:07:09.828Z,97421.81
2023-02-17T14:09:11.164Z,97429.69
2023-02-17T14:11:12.474Z,97430.78
2023-02-17T14:13:13.784Z,97421.69
2023-02-17T14:15:15.114Z,97427.81
2023-02-17T14:17:16.411Z,97413.41
2023-02-17T14:19:17.708Z,97416.84
2023-02-17T14:21:19.014Z,97410.94
2023-02-17T14:23:20.320Z,97456.81
2023-02-17T14:25:21.647Z,97403.97
2023-02-17T14:27:22.976Z,97408.16
2023-02-17T14:29:24.278Z,97402.94
2023-02-17T14:31:25.727Z,97404.50
2023-02-17T14:33:27.134Z,97395.84
2023-02-17T14:35:28.465Z,97400.91
2023-02-17T14:37:32.010Z,97398.28
2023-02-17T14:39:33.359Z,97388.84
2023-02-17T14:41:34.721Z,97399.03
2023-02-17T14:43:36.056Z,97396.22
2023-02-17T14:45:37.411Z,97393.97
2023-02-17T14:47:41.631Z,97394.38
2023-02-17T14:49:42.954Z,97225.16
2023-02-17T14:51:44.308Z,97372.44
2023-02-17T14:53:45.687Z,97378.41
2023-02-17T14:55:52.736Z,97370.38
2023-02-17T14:57:54.073Z,97370.28
2023-02-17T14:59:57.697Z,97376.53
2023-02-17T15:01:59.096Z,97370.28
2023-02-17T15:04:00.852Z,97367.63
2023-02-17T15:06:02.187Z,97371.28
2023-02-17T15:08:03.532Z,97366.03
2023-02-17T15:10:04.823Z,97367.72
2023-02-17T15:12:06.409Z,97375.34
2023-02-17T15:14:07.711Z,97369.41
2023-02-17T15:16:09.369Z,97370.84
2023-02-17T15:18:10.847Z,97371.44
2023-02-17T15:20:12.306Z,97366.22
2023-02-17T15:22:13.635Z,97366.50
2023-02-17T15:24:15.046Z,97366.84
2023-02-17T15:26:19.388Z,97376.34
2023-02-17T15:28:20.770Z,97380.97
2023-02-17T15:30:22.936Z,97390.00
2023-02-17T15:32:24.438Z,97397.06
2023-02-17T15:34:25.799Z,97398.06
2023-02-17T15:36:27.103Z,97399.16
2023-02-17T15:38:28.427Z,97399.72
2023-02-17T15:40:30.029Z,97400.06
2023-02-17T15:42:31.374Z,97406.13
2023-02-17T15:44:32.684Z,97406.28
2023-02-17T15:46:34.073Z,97412.63
2023-02-17T15:48:35.393Z,97417.69
2023-02-17T15:50:39.858Z,97411.78
2023-02-17T15:52:41.183Z,97413.56
2023-02-17T15:54:42.745Z,97405.97
2023-02-17T15:56:44.819Z,97397.44
2023-02-17T15:58:46.144Z,97408.50
2023-02-17T16:00:48.637Z,97395.75
2023-02-17T16:02:50.188Z,97405.13
2023-02-17T16:04:51.708Z,97405.03
2023-02-17T16:06:53.046Z,97403.75
2023-02-17T16:08:54.415Z,97408.19
2023-02-17T16:10:56.116Z,97401.44
2023-02-17T16:12:57.562Z,97415.06
2023-02-17T16:14:59.056Z,97416.13
2023-02-17T16:17:00.343Z,97424.53
2023-02-17T16:19:01.697Z,97417.63
2023-02-17T16:21:03.084Z,97420.19
2023-02-17T16:23:04.419Z,97424.38
2023-02-17T16:25:05.741Z,97425.13
2023-02-17T16:27:09.478Z,97413.19
2023-02-17T16:29:10.792Z,97424.28
2023-02-17T16:31:12.329Z,97421.66
2023-02-17T16:33:14.009Z,97424.94
2023-02-17T16:35:15.411Z,97430.06
2023-02-17T16:37:16.742Z,97430.03
2023-02-17T16:39:18.092Z,97414.72
2023-02-17T16:41:19.427Z,97413.78
2023-02-17T16:43:20.741Z,97418.03
2023-02-17T16:45:22.049Z,97396.69
2023-02-17T16:47:24.058Z,97411.16
2023-02-17T16:49:28.320Z,97417.94
2023-02-17T16:51:29.714Z,97412.00
2023-02-17T16:53:31.017Z,97422.13
2023-02-17T16:55:32.355Z,97408.56
2023-02-17T16:57:34.888Z,97421.38
2023-02-17T16:59:36.180Z,97412.44
2023-02-17T17:01:37.514Z,97418.31
2023-02-17T17:03:39.078Z,97410.06
2023-02-17T17:05:41.204Z,97403.19
2023-02-17T17:07:45.216Z,97422.56
2023-02-17T17:10:06.880Z,97415.97
2023-02-17T17:12:07.855Z,97421.81
2023-02-17T17:14:09.186Z,97414.75
2023-02-17T17:16:10.595Z,97413.00
2023-02-17T17:18:11.920Z,97408.81
2023-02-17T17:20:13.576Z,97393.81
2023-02-17T17:22:14.879Z,97387.28
2023-02-17T17:24:16.172Z,97400.28
2023-02-17T17:26:17.460Z,97402.34
2023-02-17T17:28:18.807Z,97392.25
2023-02-17T17:30:20.253Z,97402.59
2023-02-17T17:32:21.699Z,97417.19
2023-02-17T17:34:23.063Z,97408.69
2023-02-17T17:36:25.367Z,97419.09
2023-02-17T17:38:26.680Z,97416.19
2023-02-17T17:40:28.042Z,97419.22
2023-02-17T17:42:32.073Z,97416.59
2023-02-17T17:44:33.413Z,97421.53
2023-02-17T17:46:34.754Z,97412.13
2023-02-17T17:48:36.096Z,97409.19
2023-02-17T17:50:37.427Z,97407.31
2023-02-17T17:52:38.764Z,97406.91
2023-02-17T17:54:40.067Z,97417.78
2023-02-17T17:56:42.926Z,97416.25
2023-02-17T17:58:44.265Z,97420.34
2023-02-17T18:00:45.636Z,97408.59
2023-02-17T18:02:46.968Z,97413.09
2023-02-17T18:04:54.027Z,97413.72
2023-02-17T18:06:55.371Z,97408.94
2023-02-17T18:08:56.697Z,97413.41
2023-02-17T18:10:58.013Z,97408.03
2023-02-17T18:12:59.299Z,97421.44
2023-02-17T18:15:02.805Z,97421.31
2023-02-17T18:17:04.149Z,97419.28
2023-02-17T18:19:05.508Z,97415.66
2023-02-17T18:21:06.814Z,97413.25
2023-02-17T18:23:08.161Z,97419.59
2023-02-17T18:25:09.460Z,97424.25
2023-02-17T18:27:10.802Z,97422.69
2023-02-17T18:29:12.196Z,97411.75
2023-02-17T18:31:13.625Z,97425.66
2023-02-17T18:33:15.056Z,97426.44
2023-02-17T18:35:16.458Z,97439.34
2023-02-17T18:37:20.688Z,97443.63
2023-02-17T18:39:21.979Z,97447.91
2023-02-17T18:43:25.440Z,97447.06
2023-02-17T18:45:26.809Z,97454.34
2023-02-17T18:47:28.128Z,97475.91
2023-02-17T18:49:30.443Z,97489.63
2023-02-17T18:51:31.778Z,97486.31
2023-02-17T18:53:33.156Z,97494.09
2023-02-17T18:55:35.512Z,97507.16
2023-02-17T18:57:36.852Z,97493.97
2023-02-17T18:59:38.163Z,97493.91
2023-02-17T19:01:41.004Z,97489.09
2023-02-17T19:03:42.399Z,97492.41
2023-02-17T19:05:43.725Z,97486.91
2023-02-17T19:07:48.104Z,97481.22
2023-02-17T19:09:53.562Z,97480.63
2023-02-17T19:11:58.076Z,97491.88
2023-02-17T19:14:02.484Z,97503.13
2023-02-17T19:16:03.823Z,97508.50
2023-02-17T19:18:05.187Z,97505.25
2023-02-17T19:20:06.494Z,97499.81
2023-02-17T19:22:08.810Z,97504.44
2023-02-17T19:24:10.721Z,97511.59
2023-02-17T19:26:12.273Z,97501.66
2023-02-17T19:28:19.356Z,97500.56
2023-02-17T19:30:20.730Z,97519.81
2023-02-17T19:32:22.063Z,97510.56
2023-02-17T19:34:23.395Z,97506.66
2023-02-17T19:36:24.872Z,97534.50
2023-02-17T19:38:26.276Z,97526.72
2023-02-17T19:40:27.616Z,97533.31
2023-02-17T19:42:28.987Z,97547.41
2023-02-17T19:44:30.555Z,97555.41
2023-02-17T19:46:32.181Z,97532.75
2023-02-17T19:48:34.428Z,97554.84
2023-02-17T19:50:35.730Z,97558.19
2023-02-17T19:52:37.035Z,97551.88
2023-02-17T19:54:38.364Z,97534.63
2023-02-17T19:56:39.693Z,97534.44
2023-02-17T19:58:41.101Z,97540.47
2023-02-17T20:00:42.469Z,97541.16
2023-02-17T20:02:43.852Z,97550.34
2023-02-17T20:04:45.151Z,97540.81
2023-02-17T20:06:47.442Z,97541.66
2023-02-17T20:08:51.059Z,97539.84
2023-02-17T20:10:52.376Z,97543.47
2023-02-17T20:12:53.680Z,97537.19
2023-02-17T20:14:57.764Z,97525.41
2023-02-17T20:17:00.668Z,97511.69
2023-02-17T20:19:05.019Z,97521.25
2023-02-17T20:21:06.512Z,97528.66
2023-02-17T20:23:07.926Z,97518.56
2023-02-17T20:25:09.283Z,97532.25
2023-02-17T20:27:11.048Z,97532.16
2023-02-17T20:29:12.479Z,97529.69
2023-02-17T20:31:13.888Z,97540.78
2023-02-17T20:33:15.252Z,97535.13
2023-02-17T20:35:16.595Z,97529.19
2023-02-17T20:37:17.896Z,97537.19
2023-02-17T20:39:19.924Z,97536.16
2023-02-17T20:41:21.308Z,97541.44
2023-02-17T20:43:22.648Z,97545.59
2023-02-17T20:45:23.952Z,97538.69
2023-02-17T20:47:25.249Z,97539.84
2023-02-17T20:49:26.593Z,97540.63
2023-02-17T20:51:27.954Z,97545.69
2023-02-17T20:53:29.291Z,97541.72
2023-02-17T20:55:30.588Z,97538.22
2023-02-17T20:57:32.046Z,97533.44
2023-02-17T20:59:33.376Z,97535.97
2023-02-17T21:01:35.007Z,97547.88
2023-02-17T21:03:36.351Z,97559.94
2023-02-17T21:05:37.690Z,97542.63
2023-02-17T21:07:38.979Z,97527.19
2023-02-17T21:09:40.313Z,97544.28
2023-02-17T21:11:56.841Z,97557.31
2023-02-17T21:13:58.133Z,97568.91
2023-02-17T21:15:59.460Z,97557.78
2023-02-17T21:18:00.869Z,97546.50
2023-02-17T21:20:02.210Z,97544.56
2023-02-17T21:22:03.562Z,97549.50
2023-02-17T21:24:07.824Z,97560.44
2023-02-17T21:26:12.367Z,97566.31
2023-02-17T21:28:15.786Z,97571.03
2023-02-17T21:30:18.528Z,97588.78
2023-02-17T21:32:19.926Z,97582.59
2023-02-17T21:34:21.338Z,97577.31
2023-02-17T21:36:22.704Z,97597.94
2023-02-17T21:38:24.052Z,97591.88
2023-02-17T21:40:25.394Z,97603.66
2023-02-17T21:42:46.004Z,97600.53
2023-02-17T21:44:53.566Z,97608.59
2023-02-17T21:46:54.939Z,97632.78
2023-02-17T21:48:56.230Z,97622.53
2023-02-17T21:50:57.532Z,97624.34
2023-02-17T21:52:58.830Z,97634.91
2023-02-17T21:55:01.180Z,97634.91
2023-02-17T21:57:05.128Z,97651.56
2023-02-17T21:59:06.449Z,97669.31
2023-02-17T22:01:08.204Z,97664.75
2023-02-17T22:03:09.565Z,97672.56
2023-02-17T22:05:10.895Z,97679.22
2023-02-17T22:07:12.173Z,97688.84
2023-02-17T22:09:13.625Z,97671.84
2023-02-17T22:11:15.054Z,97694.88
2023-02-17T22:13:16.353Z,97680.25
2023-02-17T22:15:17.649Z,97681.09
2023-02-17T22:17:18.942Z,97691.41
2023-02-17T22:19:20.253Z,97696.63
2023-02-17T22:21:27.628Z,97578.72
2023-02-17T22:23:28.961Z,97704.38
2023-02-17T22:25:31.207Z,97721.78
2023-02-17T22:27:32.539Z,97709.16
2023-02-17T22:29:33.825Z,97728.16
2023-02-17T22:31:35.315Z,97593.25
2023-02-17T22:33:36.683Z,97718.25
2023-02-17T22:35:37.988Z,97726.88
2023-02-17T22:37:39.312Z,97717.44
2023-02-17T22:39:40.634Z,97711.59
2023-02-17T22:41:41.927Z,97722.09
2023-02-17T22:43:43.224Z,97712.81
2023-02-17T22:45:44.578Z,97718.00
2023-02-17T22:47:45.887Z,97714.66
2023-02-17T22:49:47.184Z,97725.00
2023-02-17T22:51:48.495Z,97718.94
2023-02-17T22:53:49.787Z,97726.50
2023-02-17T22:55:51.083Z,97729.84
2023-02-17T22:57:52.460Z,97725.13
2023-02-17T22:59:53.755Z,97725.25
2023-02-17T23:01:55.052Z,97727.00
2023-02-17T23:03:56.360Z,97731.34
2023-02-17T23:05:57.706Z,97740.16
2023-02-17T23:07:58.991Z,97743.78
2023-02-17T23:10:00.296Z,97736.75
2023-02-17T23:12:02.149Z,97747.69
2023-02-17T23:14:03.439Z,97747.09
2023-02-17T23:16:04.788Z,97746.16
2023-02-17T23:18:06.127Z,97751.22
2023-02-17T23:20:07.452Z,97742.56
2023-02-17T23:22:08.982Z,97741.91
2023-02-17T23:24:10.318Z,97739.34
2023-02-17T23:26:11.640Z,97755.38
2023-02-17T23:28:12.988Z,97743.44
2023-02-17T23:30:14.336Z,97753.69
2023-02-17T23:32:15.683Z,97744.97
2023-02-17T23:34:16.979Z,97753.44
2023-02-17T23:36:18.328Z,97747.97
2023-02-17T23:38:19.660Z,97762.72
2023-02-17T23:40:20.991Z,97745.28
2023-02-17T23:42:22.296Z,97749.09
2023-02-17T23:44:26.427Z,97743.34
2023-02-17T23:46:27.796Z,97753.69
2023-02-17T23:48:29.211Z,97764.66
2023-02-17T23:50:30.503Z,97759.41
2023-02-17T23:52:31.809Z,97771.63
2023-02-17T23:54:33.126Z,97772.88